sensor_id;sensor_type;location;lat;lon;timestamp;P1;durP1;ratioP1;P2;durP2;ratioP2
16922;SDS011;8578;50.938;13.556;2023-10-31T00:00:19;7.63;;;3.70;;
16922;SDS011;8578;50.938;13.556;2023-10-31T00:02:46;7.37;;;3.70;;
16922;SDS011;8578;50.938;13.556;2023-10-31T00:05:15;6.60;;;3.73;;
16922;SDS011;8578;50.938;13.556;2023-10-31T00:07:46;5.60;;;4.10;;
16922;SDS011;8578;50.938;13.556;2023-10-31T00:10:15;6.33;;;3.67;;
16922;SDS011;8578;50.938;13.556;2023-10-31T00:12:42;13.07;;;4.57;;
16922;SDS011;8578;50.938;13.556;2023-10-31T00:15:10;5.90;;;4.27;;
16922;SDS011;8578;50.938;13.556;2023-10-31T00:17:37;8.23;;;4.47;;
16922;SDS011;8578;50.938;13.556;2023-10-31T00:20:06;6.53;;;4.30;;
16922;SDS011;8578;50.938;13.556;2023-10-31T00:22:35;6.90;;;4.37;;
16922;SDS011;8578;50.938;13.556;2023-10-31T00:25:02;6.63;;;4.40;;
16922;SDS011;8578;50.938;13.556;2023-10-31T00:27:30;6.23;;;3.90;;
16922;SDS011;8578;50.938;13.556;2023-10-31T00:29:57;7.20;;;4.03;;
16922;SDS011;8578;50.938;13.556;2023-10-31T00:32:25;5.23;;;4.10;;
16922;SDS011;8578;50.938;13.556;2023-10-31T00:34:52;5.33;;;3.97;;
16922;SDS011;8578;50.938;13.556;2023-10-31T00:37:20;5.23;;;4.13;;
16922;SDS011;8578;50.938;13.556;2023-10-31T00:39:49;6.57;;;4.70;;
16922;SDS011;8578;50.938;13.556;2023-10-31T00:42:16;6.47;;;3.90;;
16922;SDS011;8578;50.938;13.556;2023-10-31T00:44:44;8.40;;;4.47;;
16922;SDS011;8578;50.938;13.556;2023-10-31T00:47:11;5.30;;;4.10;;
16922;SDS011;8578;50.938;13.556;2023-10-31T00:49:39;5.83;;;4.30;;
16922;SDS011;8578;50.938;13.556;2023-10-31T00:52:06;5.43;;;4.70;;
16922;SDS011;8578;50.938;13.556;2023-10-31T00:54:35;6.83;;;4.93;;
16922;SDS011;8578;50.938;13.556;2023-10-31T00:57:04;5.50;;;4.37;;
16922;SDS011;8578;50.938;13.556;2023-10-31T00:59:32;5.77;;;4.37;;
16922;SDS011;8578;50.938;13.556;2023-10-31T01:02:00;6.23;;;4.73;;
16922;SDS011;8578;50.938;13.556;2023-10-31T01:04:27;7.33;;;4.90;;
16922;SDS011;8578;50.938;13.556;2023-10-31T01:06:55;5.50;;;4.63;;
16922;SDS011;8578;50.938;13.556;2023-10-31T01:09:22;4.70;;;4.23;;
16922;SDS011;8578;50.938;13.556;2023-10-31T01:11:50;8.07;;;4.53;;
16922;SDS011;8578;50.938;13.556;2023-10-31T01:14:19;5.23;;;4.73;;
16922;SDS011;8578;50.938;13.556;2023-10-31T01:16:47;5.50;;;4.70;;
16922;SDS011;8578;50.938;13.556;2023-10-31T01:19:14;6.73;;;5.17;;
16922;SDS011;8578;50.938;13.556;2023-10-31T01:21:42;5.37;;;4.80;;
16922;SDS011;8578;50.938;13.556;2023-10-31T01:24:09;7.07;;;5.43;;
16922;SDS011;8578;50.938;13.556;2023-10-31T01:26:38;7.40;;;6.10;;
16922;SDS011;8578;50.938;13.556;2023-10-31T01:29:05;7.37;;;5.97;;
16922;SDS011;8578;50.938;13.556;2023-10-31T01:31:34;8.43;;;6.27;;
16922;SDS011;8578;50.938;13.556;2023-10-31T01:34:21;6.53;;;5.73;;
16922;SDS011;8578;50.938;13.556;2023-10-31T01:36:48;9.70;;;6.50;;
16922;SDS011;8578;50.938;13.556;2023-10-31T01:39:16;7.17;;;6.17;;
16922;SDS011;8578;50.938;13.556;2023-10-31T01:41:44;6.87;;;5.80;;
16922;SDS011;8578;50.938;13.556;2023-10-31T01:44:13;8.40;;;6.40;;
16922;SDS011;8578;50.938;13.556;2023-10-31T01:46:42;10.33;;;7.00;;
16922;SDS011;8578;50.938;13.556;2023-10-31T01:49:10;13.93;;;8.30;;
16922;SDS011;8578;50.938;13.556;2023-10-31T01:51:38;11.70;;;7.63;;
16922;SDS011;8578;50.938;13.556;2023-10-31T01:54:05;11.90;;;8.63;;
16922;SDS011;8578;50.938;13.556;2023-10-31T01:56:34;10.47;;;8.00;;
16922;SDS011;8578;50.938;13.556;2023-10-31T01:59:02;11.93;;;8.53;;
16922;SDS011;8578;50.938;13.556;2023-10-31T02:01:29;10.03;;;8.37;;
16922;SDS011;8578;50.938;13.556;2023-10-31T02:03:58;11.70;;;8.20;;
16922;SDS011;8578;50.938;13.556;2023-10-31T02:06:28;11.33;;;8.37;;
16922;SDS011;8578;50.938;13.556;2023-10-31T02:08:56;11.57;;;8.67;;
16922;SDS011;8578;50.938;13.556;2023-10-31T02:11:24;12.13;;;9.30;;
16922;SDS011;8578;50.938;13.556;2023-10-31T02:13:51;11.67;;;8.57;;
16922;SDS011;8578;50.938;13.556;2023-10-31T02:16:19;12.87;;;9.00;;
16922;SDS011;8578;50.938;13.556;2023-10-31T02:18:46;15.23;;;9.83;;
16922;SDS011;8578;50.938;13.556;2023-10-31T02:21:15;15.80;;;10.33;;
16922;SDS011;8578;50.938;13.556;2023-10-31T02:23:48;16.83;;;11.23;;
16922;SDS011;8578;50.938;13.556;2023-10-31T02:26:22;15.00;;;10.97;;
16922;SDS011;8578;50.938;13.556;2023-10-31T02:28:50;21.07;;;12.77;;
16922;SDS011;8578;50.938;13.556;2023-10-31T02:31:18;23.23;;;13.23;;
16922;SDS011;8578;50.938;13.556;2023-10-31T02:33:46;20.50;;;13.57;;
16922;SDS011;8578;50.938;13.556;2023-10-31T02:36:13;21.97;;;13.87;;
16922;SDS011;8578;50.938;13.556;2023-10-31T02:38:41;23.17;;;13.57;;
16922;SDS011;8578;50.938;13.556;2023-10-31T02:41:10;22.83;;;14.30;;
16922;SDS011;8578;50.938;13.556;2023-10-31T02:43:38;24.50;;;13.03;;
16922;SDS011;8578;50.938;13.556;2023-10-31T02:46:06;18.37;;;12.10;;
16922;SDS011;8578;50.938;13.556;2023-10-31T02:48:33;18.97;;;11.50;;
16922;SDS011;8578;50.938;13.556;2023-10-31T02:51:06;20.77;;;11.00;;
16922;SDS011;8578;50.938;13.556;2023-10-31T02:53:33;17.20;;;10.37;;
16922;SDS011;8578;50.938;13.556;2023-10-31T02:56:03;14.90;;;9.30;;
16922;SDS011;8578;50.938;13.556;2023-10-31T02:58:32;14.20;;;9.57;;
16922;SDS011;8578;50.938;13.556;2023-10-31T03:01:01;12.67;;;7.80;;
16922;SDS011;8578;50.938;13.556;2023-10-31T03:03:28;13.73;;;7.30;;
16922;SDS011;8578;50.938;13.556;2023-10-31T03:05:56;11.43;;;7.60;;
16922;SDS011;8578;50.938;13.556;2023-10-31T03:08:24;10.93;;;7.10;;
16922;SDS011;8578;50.938;13.556;2023-10-31T03:10:52;9.07;;;6.63;;
16922;SDS011;8578;50.938;13.556;2023-10-31T03:13:20;8.10;;;5.63;;
16922;SDS011;8578;50.938;13.556;2023-10-31T03:15:49;9.33;;;5.83;;
16922;SDS011;8578;50.938;13.556;2023-10-31T03:18:16;7.20;;;5.00;;
16922;SDS011;8578;50.938;13.556;2023-10-31T03:20:45;8.40;;;4.53;;
16922;SDS011;8578;50.938;13.556;2023-10-31T03:23:14;6.23;;;4.23;;
16922;SDS011;8578;50.938;13.556;2023-10-31T03:25:41;7.33;;;4.10;;
16922;SDS011;8578;50.938;13.556;2023-10-31T03:28:17;5.10;;;4.00;;
16922;SDS011;8578;50.938;13.556;2023-10-31T03:30:45;6.33;;;3.97;;
16922;SDS011;8578;50.938;13.556;2023-10-31T03:33:14;6.27;;;4.03;;
16922;SDS011;8578;50.938;13.556;2023-10-31T03:35:42;6.27;;;4.13;;
16922;SDS011;8578;50.938;13.556;2023-10-31T03:38:09;6.60;;;3.73;;
16922;SDS011;8578;50.938;13.556;2023-10-31T03:40:37;6.20;;;4.17;;
16922;SDS011;8578;50.938;13.556;2023-10-31T03:43:05;4.37;;;3.73;;
16922;SDS011;8578;50.938;13.556;2023-10-31T03:45:33;5.20;;;4.20;;
16922;SDS011;8578;50.938;13.556;2023-10-31T03:48:00;4.03;;;3.37;;
16922;SDS011;8578;50.938;13.556;2023-10-31T03:50:30;4.60;;;3.57;;
16922;SDS011;8578;50.938;13.556;2023-10-31T03:52:57;4.80;;;3.40;;
16922;SDS011;8578;50.938;13.556;2023-10-31T03:55:26;4.60;;;3.27;;
16922;SDS011;8578;50.938;13.556;2023-10-31T03:57:53;5.00;;;3.10;;
16922;SDS011;8578;50.938;13.556;2023-10-31T04:00:21;3.20;;;2.60;;
16922;SDS011;8578;50.938;13.556;2023-10-31T04:02:48;3.27;;;2.43;;
16922;SDS011;8578;50.938;13.556;2023-10-31T04:05:16;3.73;;;2.47;;
16922;SDS011;8578;50.938;13.556;2023-10-31T04:07:46;3.20;;;1.93;;
16922;SDS011;8578;50.938;13.556;2023-10-31T04:10:14;2.80;;;2.20;;
16922;SDS011;8578;50.938;13.556;2023-10-31T04:12:42;2.30;;;1.80;;
16922;SDS011;8578;50.938;13.556;2023-10-31T04:15:10;2.70;;;1.47;;
16922;SDS011;8578;50.938;13.556;2023-10-31T04:17:38;1.60;;;1.30;;
16922;SDS011;8578;50.938;13.556;2023-10-31T04:20:06;2.30;;;1.67;;
16922;SDS011;8578;50.938;13.556;2023-10-31T04:22:34;1.57;;;1.23;;
16922;SDS011;8578;50.938;13.556;2023-10-31T04:25:03;2.77;;;1.50;;
16922;SDS011;8578;50.938;13.556;2023-10-31T04:27:31;1.30;;;1.13;;
16922;SDS011;8578;50.938;13.556;2023-10-31T04:29:58;1.40;;;1.30;;
16922;SDS011;8578;50.938;13.556;2023-10-31T04:32:26;1.83;;;1.40;;
16922;SDS011;8578;50.938;13.556;2023-10-31T04:34:54;1.83;;;1.17;;
16922;SDS011;8578;50.938;13.556;2023-10-31T04:37:22;4.33;;;1.50;;
16922;SDS011;8578;50.938;13.556;2023-10-31T04:39:49;4.23;;;1.57;;
16922;SDS011;8578;50.938;13.556;2023-10-31T04:42:18;2.13;;;1.73;;
16922;SDS011;8578;50.938;13.556;2023-10-31T04:44:46;2.27;;;1.70;;
16922;SDS011;8578;50.938;13.556;2023-10-31T04:47:14;2.93;;;1.73;;
16922;SDS011;8578;50.938;13.556;2023-10-31T04:49:42;2.20;;;1.40;;
16922;SDS011;8578;50.938;13.556;2023-10-31T04:52:09;1.60;;;1.30;;
16922;SDS011;8578;50.938;13.556;2023-10-31T04:54:39;1.47;;;1.10;;
16922;SDS011;8578;50.938;13.556;2023-10-31T04:57:07;1.57;;;1.20;;
16922;SDS011;8578;50.938;13.556;2023-10-31T04:59:36;1.97;;;1.40;;
16922;SDS011;8578;50.938;13.556;2023-10-31T05:02:04;3.13;;;1.20;;
16922;SDS011;8578;50.938;13.556;2023-10-31T05:04:33;1.27;;;1.00;;
16922;SDS011;8578;50.938;13.556;2023-10-31T05:07:00;1.33;;;1.20;;
16922;SDS011;8578;50.938;13.556;2023-10-31T05:09:28;1.60;;;1.03;;
16922;SDS011;8578;50.938;13.556;2023-10-31T05:11:56;2.50;;;1.13;;
16922;SDS011;8578;50.938;13.556;2023-10-31T05:14:23;1.20;;;0.70;;
16922;SDS011;8578;50.938;13.556;2023-10-31T05:16:52;3.17;;;0.90;;
16922;SDS011;8578;50.938;13.556;2023-10-31T05:19:20;8.53;;;1.00;;
16922;SDS011;8578;50.938;13.556;2023-10-31T05:21:48;1.17;;;0.80;;
16922;SDS011;8578;50.938;13.556;2023-10-31T05:24:15;0.70;;;0.70;;
16922;SDS011;8578;50.938;13.556;2023-10-31T05:26:43;1.47;;;0.90;;
16922;SDS011;8578;50.938;13.556;2023-10-31T05:29:11;1.73;;;0.80;;
16922;SDS011;8578;50.938;13.556;2023-10-31T05:31:39;0.73;;;0.63;;
16922;SDS011;8578;50.938;13.556;2023-10-31T05:34:09;1.07;;;0.60;;
16922;SDS011;8578;50.938;13.556;2023-10-31T05:36:36;0.77;;;0.70;;
16922;SDS011;8578;50.938;13.556;2023-10-31T05:39:04;1.03;;;0.70;;
16922;SDS011;8578;50.938;13.556;2023-10-31T05:41:33;0.87;;;0.70;;
16922;SDS011;8578;50.938;13.556;2023-10-31T05:44:00;0.90;;;0.67;;
16922;SDS011;8578;50.938;13.556;2023-10-31T05:46:28;3.37;;;0.70;;
16922;SDS011;8578;50.938;13.556;2023-10-31T05:48:55;1.27;;;0.60;;
16922;SDS011;8578;50.938;13.556;2023-10-31T05:51:24;1.40;;;0.73;;
16922;SDS011;8578;50.938;13.556;2023-10-31T05:53:52;1.23;;;0.60;;
16922;SDS011;8578;50.938;13.556;2023-10-31T05:56:20;0.73;;;0.50;;
16922;SDS011;8578;50.938;13.556;2023-10-31T05:58:48;1.20;;;0.80;;
16922;SDS011;8578;50.938;13.556;2023-10-31T06:01:15;2.93;;;0.50;;
16922;SDS011;8578;50.938;13.556;2023-10-31T06:03:43;1.13;;;0.40;;
16922;SDS011;8578;50.938;13.556;2023-10-31T06:06:10;0.70;;;0.57;;
16922;SDS011;8578;50.938;13.556;2023-10-31T06:08:40;0.60;;;0.60;;
16922;SDS011;8578;50.938;13.556;2023-10-31T06:11:08;1.63;;;0.50;;
16922;SDS011;8578;50.938;13.556;2023-10-31T06:13:36;2.40;;;0.50;;
16922;SDS011;8578;50.938;13.556;2023-10-31T06:16:04;2.00;;;0.50;;
16922;SDS011;8578;50.938;13.556;2023-10-31T06:18:33;0.57;;;0.50;;
16922;SDS011;8578;50.938;13.556;2023-10-31T06:21:00;0.60;;;0.60;;
16922;SDS011;8578;50.938;13.556;2023-10-31T06:23:28;0.93;;;0.57;;
16922;SDS011;8578;50.938;13.556;2023-10-31T06:25:59;0.77;;;0.50;;
16922;SDS011;8578;50.938;13.556;2023-10-31T06:28:27;0.77;;;0.40;;
16922;SDS011;8578;50.938;13.556;2023-10-31T06:30:55;0.83;;;0.50;;
16922;SDS011;8578;50.938;13.556;2023-10-31T06:33:22;0.40;;;0.40;;
16922;SDS011;8578;50.938;13.556;2023-10-31T06:35:50;1.67;;;0.60;;
16922;SDS011;8578;50.938;13.556;2023-10-31T06:38:20;0.57;;;0.57;;
16922;SDS011;8578;50.938;13.556;2023-10-31T06:40:47;1.27;;;0.50;;
16922;SDS011;8578;50.938;13.556;2023-10-31T06:43:16;1.17;;;0.50;;
16922;SDS011;8578;50.938;13.556;2023-10-31T06:45:43;0.30;;;0.30;;
16922;SDS011;8578;50.938;13.556;2023-10-31T06:48:11;1.20;;;0.47;;
16922;SDS011;8578;50.938;13.556;2023-10-31T06:50:38;0.60;;;0.30;;
16922;SDS011;8578;50.938;13.556;2023-10-31T06:53:06;0.37;;;0.30;;
16922;SDS011;8578;50.938;13.556;2023-10-31T06:55:34;1.37;;;0.60;;
16922;SDS011;8578;50.938;13.556;2023-10-31T06:58:01;1.77;;;0.37;;
16922;SDS011;8578;50.938;13.556;2023-10-31T07:00:31;0.40;;;0.40;;
16922;SDS011;8578;50.938;13.556;2023-10-31T07:02:59;0.37;;;0.30;;
16922;SDS011;8578;50.938;13.556;2023-10-31T07:05:31;0.77;;;0.40;;
16922;SDS011;8578;50.938;13.556;2023-10-31T07:07:59;1.90;;;0.20;;
16922;SDS011;8578;50.938;13.556;2023-10-31T07:10:26;0.70;;;0.40;;
16922;SDS011;8578;50.938;13.556;2023-10-31T07:12:55;0.30;;;0.23;;
16922;SDS011;8578;50.938;13.556;2023-10-31T07:15:24;0.77;;;0.40;;
16922;SDS011;8578;50.938;13.556;2023-10-31T07:17:53;0.20;;;0.20;;
16922;SDS011;8578;50.938;13.556;2023-10-31T07:20:22;0.60;;;0.37;;
16922;SDS011;8578;50.938;13.556;2023-10-31T07:22:49;2.40;;;0.20;;
16922;SDS011;8578;50.938;13.556;2023-10-31T07:25:17;0.33;;;0.30;;
16922;SDS011;8578;50.938;13.556;2023-10-31T07:27:45;1.13;;;0.27;;
16922;SDS011;8578;50.938;13.556;2023-10-31T07:30:13;0.30;;;0.30;;
16922;SDS011;8578;50.938;13.556;2023-10-31T07:32:41;0.20;;;0.20;;
16922;SDS011;8578;50.938;13.556;2023-10-31T07:35:10;0.30;;;0.30;;
16922;SDS011;8578;50.938;13.556;2023-10-31T07:37:38;0.47;;;0.20;;
16922;SDS011;8578;50.938;13.556;2023-10-31T07:40:06;7.10;;;0.50;;
16922;SDS011;8578;50.938;13.556;2023-10-31T07:42:35;0.70;;;0.30;;
16922;SDS011;8578;50.938;13.556;2023-10-31T07:45:02;0.10;;;0.10;;
16922;SDS011;8578;50.938;13.556;2023-10-31T07:47:30;1.60;;;0.20;;
16922;SDS011;8578;50.938;13.556;2023-10-31T07:49:58;0.30;;;0.30;;
16922;SDS011;8578;50.938;13.556;2023-10-31T07:52:27;4.53;;;0.60;;
16922;SDS011;8578;50.938;13.556;2023-10-31T07:54:54;0.20;;;0.10;;
16922;SDS011;8578;50.938;13.556;2023-10-31T07:57:22;0.30;;;0.20;;
16922;SDS011;8578;50.938;13.556;2023-10-31T07:59:49;1.50;;;0.20;;
16922;SDS011;8578;50.938;13.556;2023-10-31T08:02:17;0.33;;;0.13;;
16922;SDS011;8578;50.938;13.556;2023-10-31T08:04:45;0.20;;;0.20;;
16922;SDS011;8578;50.938;13.556;2023-10-31T08:07:12;0.63;;;0.10;;
16922;SDS011;8578;50.938;13.556;2023-10-31T08:09:41;0.30;;;0.20;;
16922;SDS011;8578;50.938;13.556;2023-10-31T08:12:09;1.43;;;0.30;;
16922;SDS011;8578;50.938;13.556;2023-10-31T08:14:37;0.23;;;0.20;;
16922;SDS011;8578;50.938;13.556;2023-10-31T08:17:04;0.37;;;0.20;;
16922;SDS011;8578;50.938;13.556;2023-10-31T08:19:32;0.93;;;0.13;;
16922;SDS011;8578;50.938;13.556;2023-10-31T08:22:00;0.37;;;0.20;;
16922;SDS011;8578;50.938;13.556;2023-10-31T08:24:28;0.20;;;0.20;;
16922;SDS011;8578;50.938;13.556;2023-10-31T08:26:57;0.60;;;0.20;;
16922;SDS011;8578;50.938;13.556;2023-10-31T08:29:25;0.23;;;0.10;;
16922;SDS011;8578;50.938;13.556;2023-10-31T08:31:53;0.20;;;0.10;;
16922;SDS011;8578;50.938;13.556;2023-10-31T08:34:21;0.63;;;0.20;;
16922;SDS011;8578;50.938;13.556;2023-10-31T08:36:48;0.20;;;0.20;;
16922;SDS011;8578;50.938;13.556;2023-10-31T08:39:16;0.30;;;0.20;;
16922;SDS011;8578;50.938;13.556;2023-10-31T08:41:51;0.23;;;0.20;;
16922;SDS011;8578;50.938;13.556;2023-10-31T08:44:20;0.20;;;0.20;;
16922;SDS011;8578;50.938;13.556;2023-10-31T08:46:49;0.20;;;0.20;;
16922;SDS011;8578;50.938;13.556;2023-10-31T08:49:17;0.63;;;0.40;;
16922;SDS011;8578;50.938;13.556;2023-10-31T08:51:45;2.43;;;0.20;;
16922;SDS011;8578;50.938;13.556;2023-10-31T08:54:12;0.10;;;0.10;;
16922;SDS011;8578;50.938;13.556;2023-10-31T08:56:40;0.40;;;0.20;;
16922;SDS011;8578;50.938;13.556;2023-10-31T08:59:08;0.30;;;0.27;;
16922;SDS011;8578;50.938;13.556;2023-10-31T09:01:38;0.40;;;0.20;;
16922;SDS011;8578;50.938;13.556;2023-10-31T09:04:05;0.50;;;0.30;;
16922;SDS011;8578;50.938;13.556;2023-10-31T09:06:33;0.20;;;0.20;;
16922;SDS011;8578;50.938;13.556;2023-10-31T09:09:00;0.20;;;0.10;;
16922;SDS011;8578;50.938;13.556;2023-10-31T09:11:29;0.20;;;0.10;;
16922;SDS011;8578;50.938;13.556;2023-10-31T09:13:56;0.30;;;0.20;;
16922;SDS011;8578;50.938;13.556;2023-10-31T09:16:24;0.47;;;0.27;;
16922;SDS011;8578;50.938;13.556;2023-10-31T09:18:53;0.60;;;0.30;;
16922;SDS011;8578;50.938;13.556;2023-10-31T09:21:21;0.50;;;0.30;;
16922;SDS011;8578;50.938;13.556;2023-10-31T09:23:48;0.40;;;0.20;;
16922;SDS011;8578;50.938;13.556;2023-10-31T09:26:16;0.83;;;0.20;;
16922;SDS011;8578;50.938;13.556;2023-10-31T09:28:44;0.37;;;0.20;;
16922;SDS011;8578;50.938;13.556;2023-10-31T09:31:16;0.63;;;0.20;;
16922;SDS011;8578;50.938;13.556;2023-10-31T09:33:44;0.50;;;0.20;;
16922;SDS011;8578;50.938;13.556;2023-10-31T09:36:13;0.47;;;0.37;;
16922;SDS011;8578;50.938;13.556;2023-10-31T09:38:41;0.10;;;0.10;;
16922;SDS011;8578;50.938;13.556;2023-10-31T09:41:09;0.17;;;0.17;;
16922;SDS011;8578;50.938;13.556;2023-10-31T09:43:37;0.60;;;0.10;;
16922;SDS011;8578;50.938;13.556;2023-10-31T09:46:05;0.10;;;0.10;;
16922;SDS011;8578;50.938;13.556;2023-10-31T09:48:32;0.10;;;0.10;;
16922;SDS011;8578;50.938;13.556;2023-10-31T09:51:02;0.20;;;0.20;;
16922;SDS011;8578;50.938;13.556;2023-10-31T09:53:32;0.20;;;0.17;;
16922;SDS011;8578;50.938;13.556;2023-10-31T09:56:00;0.43;;;0.10;;
16922;SDS011;8578;50.938;13.556;2023-10-31T09:58:28;0.13;;;0.13;;
16922;SDS011;8578;50.938;13.556;2023-10-31T10:00:56;1.77;;;0.10;;
16922;SDS011;8578;50.938;13.556;2023-10-31T10:03:23;0.30;;;0.20;;
16922;SDS011;8578;50.938;13.556;2023-10-31T10:05:51;1.43;;;0.20;;
16922;SDS011;8578;50.938;13.556;2023-10-31T10:08:19;0.40;;;0.20;;
16922;SDS011;8578;50.938;13.556;2023-10-31T10:10:48;0.50;;;0.20;;
16922;SDS011;8578;50.938;13.556;2023-10-31T10:13:17;0.83;;;0.20;;
16922;SDS011;8578;50.938;13.556;2023-10-31T10:15:44;0.10;;;0.10;;
16922;SDS011;8578;50.938;13.556;2023-10-31T10:21:01;0.33;;;0.23;;
16922;SDS011;8578;50.938;13.556;2023-10-31T10:23:29;0.10;;;0.10;;
16922;SDS011;8578;50.938;13.556;2023-10-31T10:26:02;0.20;;;0.20;;
16922;SDS011;8578;50.938;13.556;2023-10-31T10:28:30;0.23;;;0.10;;
16922;SDS011;8578;50.938;13.556;2023-10-31T10:30:59;0.17;;;0.10;;
16922;SDS011;8578;50.938;13.556;2023-10-31T10:33:26;2.83;;;0.20;;
16922;SDS011;8578;50.938;13.556;2023-10-31T10:35:54;0.20;;;0.20;;
16922;SDS011;8578;50.938;13.556;2023-10-31T10:38:23;1.80;;;0.30;;
16922;SDS011;8578;50.938;13.556;2023-10-31T10:40:51;0.20;;;0.20;;
16922;SDS011;8578;50.938;13.556;2023-10-31T10:43:22;0.20;;;0.20;;
16922;SDS011;8578;50.938;13.556;2023-10-31T10:45:52;0.30;;;0.20;;
16922;SDS011;8578;50.938;13.556;2023-10-31T10:48:22;0.30;;;0.20;;
16922;SDS011;8578;50.938;13.556;2023-10-31T10:50:51;0.30;;;0.10;;
16922;SDS011;8578;50.938;13.556;2023-10-31T10:53:22;2.93;;;0.40;;
16922;SDS011;8578;50.938;13.556;2023-10-31T10:55:51;0.97;;;0.40;;
16922;SDS011;8578;50.938;13.556;2023-10-31T10:58:24;0.20;;;0.10;;
16922;SDS011;8578;50.938;13.556;2023-10-31T11:00:56;0.20;;;0.10;;
16922;SDS011;8578;50.938;13.556;2023-10-31T11:03:26;0.60;;;0.17;;
16922;SDS011;8578;50.938;13.556;2023-10-31T11:05:54;0.20;;;0.20;;
16922;SDS011;8578;50.938;13.556;2023-10-31T11:08:23;0.30;;;0.13;;
16922;SDS011;8578;50.938;13.556;2023-10-31T11:10:52;0.40;;;0.20;;
16922;SDS011;8578;50.938;13.556;2023-10-31T11:13:20;1.40;;;0.30;;
16922;SDS011;8578;50.938;13.556;2023-10-31T11:15:50;1.17;;;0.17;;
16922;SDS011;8578;50.938;13.556;2023-10-31T11:18:18;0.53;;;0.17;;
16922;SDS011;8578;50.938;13.556;2023-10-31T11:20:46;0.13;;;0.13;;
16922;SDS011;8578;50.938;13.556;2023-10-31T11:23:14;0.40;;;0.30;;
16922;SDS011;8578;50.938;13.556;2023-10-31T11:25:42;1.47;;;0.30;;
16922;SDS011;8578;50.938;13.556;2023-10-31T11:28:10;0.20;;;0.10;;
16922;SDS011;8578;50.938;13.556;2023-10-31T11:30:38;1.60;;;0.80;;
16922;SDS011;8578;50.938;13.556;2023-10-31T11:33:08;0.40;;;0.17;;
16922;SDS011;8578;50.938;13.556;2023-10-31T11:35:38;0.30;;;0.20;;
16922;SDS011;8578;50.938;13.556;2023-10-31T11:38:08;0.27;;;0.20;;
16922;SDS011;8578;50.938;13.556;2023-10-31T11:40:46;0.33;;;0.20;;
16922;SDS011;8578;50.938;13.556;2023-10-31T11:43:26;0.20;;;0.20;;
16922;SDS011;8578;50.938;13.556;2023-10-31T11:46:02;1.83;;;0.30;;
16922;SDS011;8578;50.938;13.556;2023-10-31T11:51:14;0.27;;;0.20;;
16922;SDS011;8578;50.938;13.556;2023-10-31T11:53:41;0.10;;;0.10;;
16922;SDS011;8578;50.938;13.556;2023-10-31T11:56:17;1.67;;;0.20;;
16922;SDS011;8578;50.938;13.556;2023-10-31T11:58:54;0.30;;;0.20;;
16922;SDS011;8578;50.938;13.556;2023-10-31T12:01:21;0.47;;;0.30;;
16922;SDS011;8578;50.938;13.556;2023-10-31T12:03:49;0.73;;;0.30;;
16922;SDS011;8578;50.938;13.556;2023-10-31T12:06:19;0.30;;;0.20;;
16922;SDS011;8578;50.938;13.556;2023-10-31T12:08:48;0.87;;;0.20;;
16922;SDS011;8578;50.938;13.556;2023-10-31T12:11:16;0.10;;;0.10;;
16922;SDS011;8578;50.938;13.556;2023-10-31T12:13:51;0.10;;;0.10;;
16922;SDS011;8578;50.938;13.556;2023-10-31T12:16:22;1.90;;;0.20;;
16922;SDS011;8578;50.938;13.556;2023-10-31T12:18:53;0.17;;;0.17;;
16922;SDS011;8578;50.938;13.556;2023-10-31T12:21:35;0.10;;;0.10;;
16922;SDS011;8578;50.938;13.556;2023-10-31T12:24:03;0.20;;;0.20;;
16922;SDS011;8578;50.938;13.556;2023-10-31T12:26:32;0.10;;;0.10;;
16922;SDS011;8578;50.938;13.556;2023-10-31T12:29:06;0.30;;;0.20;;
16922;SDS011;8578;50.938;13.556;2023-10-31T12:31:34;0.10;;;0.10;;
16922;SDS011;8578;50.938;13.556;2023-10-31T12:34:04;0.40;;;0.30;;
16922;SDS011;8578;50.938;13.556;2023-10-31T12:36:31;0.13;;;0.10;;
16922;SDS011;8578;50.938;13.556;2023-10-31T12:39:01;0.70;;;0.20;;
16922;SDS011;8578;50.938;13.556;2023-10-31T12:41:29;0.97;;;0.30;;
16922;SDS011;8578;50.938;13.556;2023-10-31T12:43:57;0.77;;;0.30;;
16922;SDS011;8578;50.938;13.556;2023-10-31T12:46:25;0.60;;;0.20;;
16922;SDS011;8578;50.938;13.556;2023-10-31T12:48:53;0.40;;;0.20;;
16922;SDS011;8578;50.938;13.556;2023-10-31T12:51:21;0.20;;;0.20;;
16922;SDS011;8578;50.938;13.556;2023-10-31T12:53:49;0.40;;;0.30;;
16922;SDS011;8578;50.938;13.556;2023-10-31T12:56:37;0.20;;;0.10;;
16922;SDS011;8578;50.938;13.556;2023-10-31T12:59:06;0.40;;;0.20;;
16922;SDS011;8578;50.938;13.556;2023-10-31T13:01:35;1.60;;;0.50;;
16922;SDS011;8578;50.938;13.556;2023-10-31T13:04:02;0.63;;;0.43;;
16922;SDS011;8578;50.938;13.556;2023-10-31T13:06:31;0.50;;;0.40;;
16922;SDS011;8578;50.938;13.556;2023-10-31T13:08:58;1.80;;;1.60;;
16922;SDS011;8578;50.938;13.556;2023-10-31T13:11:29;2.23;;;2.03;;
16922;SDS011;8578;50.938;13.556;2023-10-31T13:13:59;0.60;;;0.43;;
16922;SDS011;8578;50.938;13.556;2023-10-31T13:16:27;1.33;;;0.83;;
16922;SDS011;8578;50.938;13.556;2023-10-31T13:18:54;0.63;;;0.33;;
16922;SDS011;8578;50.938;13.556;2023-10-31T13:21:22;1.80;;;1.30;;
16922;SDS011;8578;50.938;13.556;2023-10-31T13:23:49;8.40;;;6.00;;
16922;SDS011;8578;50.938;13.556;2023-10-31T13:26:17;6.97;;;5.33;;
16922;SDS011;8578;50.938;13.556;2023-10-31T13:28:44;3.90;;;3.50;;
16922;SDS011;8578;50.938;13.556;2023-10-31T13:31:13;2.90;;;2.60;;
16922;SDS011;8578;50.938;13.556;2023-10-31T13:33:41;8.53;;;6.17;;
16922;SDS011;8578;50.938;13.556;2023-10-31T13:36:08;4.87;;;2.70;;
16922;SDS011;8578;50.938;13.556;2023-10-31T13:38:37;0.87;;;0.87;;
16922;SDS011;8578;50.938;13.556;2023-10-31T13:41:05;0.53;;;0.50;;
16922;SDS011;8578;50.938;13.556;2023-10-31T13:43:32;1.50;;;1.20;;
16922;SDS011;8578;50.938;13.556;2023-10-31T13:46:00;0.90;;;0.90;;
16922;SDS011;8578;50.938;13.556;2023-10-31T13:48:29;0.60;;;0.40;;
16922;SDS011;8578;50.938;13.556;2023-10-31T13:50:56;0.83;;;0.30;;
16922;SDS011;8578;50.938;13.556;2023-10-31T13:53:24;0.93;;;0.50;;
16922;SDS011;8578;50.938;13.556;2023-10-31T13:55:51;2.77;;;0.80;;
16922;SDS011;8578;50.938;13.556;2023-10-31T13:58:19;2.77;;;0.80;;
16922;SDS011;8578;50.938;13.556;2023-10-31T14:00:46;1.07;;;0.90;;
16922;SDS011;8578;50.938;13.556;2023-10-31T14:03:14;1.20;;;1.10;;
16922;SDS011;8578;50.938;13.556;2023-10-31T14:05:44;1.93;;;1.57;;
16922;SDS011;8578;50.938;13.556;2023-10-31T14:08:11;1.67;;;1.57;;
16922;SDS011;8578;50.938;13.556;2023-10-31T14:10:39;0.50;;;0.47;;
16922;SDS011;8578;50.938;13.556;2023-10-31T14:13:11;0.80;;;0.60;;
16922;SDS011;8578;50.938;13.556;2023-10-31T14:15:39;1.20;;;0.70;;
16922;SDS011;8578;50.938;13.556;2023-10-31T14:18:06;0.87;;;0.40;;
16922;SDS011;8578;50.938;13.556;2023-10-31T14:20:34;0.57;;;0.50;;
16922;SDS011;8578;50.938;13.556;2023-10-31T14:23:03;0.50;;;0.43;;
16922;SDS011;8578;50.938;13.556;2023-10-31T14:25:32;0.77;;;0.60;;
16922;SDS011;8578;50.938;13.556;2023-10-31T14:27:59;1.20;;;0.60;;
16922;SDS011;8578;50.938;13.556;2023-10-31T14:30:27;1.17;;;0.60;;
16922;SDS011;8578;50.938;13.556;2023-10-31T14:32:55;1.33;;;0.43;;
16922;SDS011;8578;50.938;13.556;2023-10-31T14:35:23;0.63;;;0.40;;
16922;SDS011;8578;50.938;13.556;2023-10-31T14:37:50;1.37;;;0.50;;
16922;SDS011;8578;50.938;13.556;2023-10-31T14:40:19;0.50;;;0.40;;
16922;SDS011;8578;50.938;13.556;2023-10-31T14:42:47;1.13;;;0.50;;
16922;SDS011;8578;50.938;13.556;2023-10-31T14:45:15;0.77;;;0.40;;
16922;SDS011;8578;50.938;13.556;2023-10-31T14:47:43;1.80;;;0.40;;
16922;SDS011;8578;50.938;13.556;2023-10-31T14:50:12;0.50;;;0.47;;
16922;SDS011;8578;50.938;13.556;2023-10-31T14:52:39;0.70;;;0.30;;
16922;SDS011;8578;50.938;13.556;2023-10-31T14:55:07;0.37;;;0.37;;
16922;SDS011;8578;50.938;13.556;2023-10-31T14:57:36;2.40;;;0.43;;